createdAt,value
2023-02-19T00:03:52.597Z,101201.31
2023-02-19T00:08:55.577Z,101194.28
2023-02-19T00:13:59.699Z,101203.53
2023-02-19T00:19:05.281Z,101195.16
2023-02-19T00:24:08.818Z,101198.06
2023-02-19T00:29:16.852Z,101187.59
2023-02-19T00:34:19.629Z,101188.53
2023-02-19T00:39:22.522Z,101195.47
2023-02-19T00:44:25.311Z,101183.94
2023-02-19T00:49:27.904Z,101193.84
2023-02-19T00:54:31.869Z,101180.88
2023-02-19T00:59:34.731Z,101187.19
2023-02-19T01:04:37.748Z,101187.97
2023-02-19T01:09:40.822Z,101184.06
2023-02-19T01:14:43.528Z,101188.44
2023-02-19T01:19:46.315Z,101186.44
2023-02-19T01:24:48.887Z,101186.75
2023-02-19T01:29:51.639Z,101190.66
2023-02-19T01:34:54.339Z,101193.16
2023-02-19T01:39:57.040Z,101185.63
2023-02-19T01:45:32.358Z,101189.81
2023-02-19T01:50:39.749Z,101193.25
2023-02-19T01:55:43.440Z,101205.13
2023-02-19T02:00:46.221Z,101181.09
2023-02-19T02:06:02.519Z,101197.88
2023-02-19T02:11:05.416Z,101192.94
2023-02-19T02:16:23.313Z,101199.56
2023-02-19T02:21:41.014Z,101202.47
2023-02-19T02:27:04.784Z,101210.81
2023-02-19T02:32:13.516Z,101179.38
2023-02-19T02:37:17.038Z,101208.81
2023-02-19T02:42:28.598Z,101202.31
2023-02-19T02:47:51.749Z,101206.31
2023-02-19T02:53:19.750Z,101211.94
2023-02-19T02:58:25.067Z,101202.69
2023-02-19T03:03:31.834Z,101209.19
2023-02-19T03:08:41.707Z,101218.81
2023-02-19T03:14:02.806Z,101211.06
2023-02-19T03:19:21.737Z,101211.78
2023-02-19T03:24:50.283Z,101224.38
2023-02-19T03:29:55.891Z,101217.66
2023-02-19T03:35:23.572Z,101227.34
2023-02-19T03:40:30.383Z,101226.94
2023-02-19T03:46:02.459Z,101230.72
2023-02-19T03:51:14.189Z,101224.41
2023-02-19T03:56:23.049Z,101228.78
2023-02-19T04:01:36.123Z,101232.41
2023-02-19T04:06:40.408Z,101223.59
2023-02-19T04:11:43.383Z,101231.91
2023-02-19T04:16:49.990Z,101239.25
2023-02-19T04:21:53.730Z,101248.81
2023-02-19T04:26:56.614Z,101236.53
2023-02-19T04:31:59.305Z,101264.38
2023-02-19T04:37:02.055Z,101258.41
2023-02-19T04:42:05.098Z,101266.88
2023-02-19T04:47:07.839Z,101278.81
2023-02-19T04:52:10.927Z,101268.56
2023-02-19T04:57:13.666Z,101286.63
2023-02-19T05:02:16.420Z,101274.13
2023-02-19T05:07:19.142Z,101286.06
2023-02-19T05:12:21.926Z,101287.91
2023-02-19T05:17:24.740Z,101292.94
2023-02-19T05:22:30.102Z,101290.94
2023-02-19T05:27:33.960Z,101289.13
2023-02-19T05:32:36.727Z,101298.09
2023-02-19T05:37:39.411Z,101288.97
2023-02-19T05:42:42.231Z,101302.25
2023-02-19T05:47:44.888Z,101305.34
2023-02-19T05:52:47.732Z,101309.41
2023-02-19T05:57:50.478Z,101297.03
2023-02-19T06:02:54.208Z,101301.56
2023-02-19T06:07:58.483Z,101284.59
2023-02-19T06:13:04.215Z,101295.34
2023-02-19T06:18:06.962Z,101317.53
2023-02-19T06:23:09.807Z,101317.50
2023-02-19T06:28:12.483Z,101321.88
2023-02-19T06:33:15.186Z,101318.81
2023-02-19T06:38:24.031Z,101321.59
2023-02-19T06:43:26.688Z,101318.97
2023-02-19T06:48:30.828Z,101296.38
2023-02-19T06:53:33.571Z,101302.41
2023-02-19T06:58:36.380Z,101311.34
2023-02-19T07:03:39.073Z,101319.59
2023-02-19T07:08:41.738Z,101313.72
2023-02-19T07:13:44.536Z,101317.53
2023-02-19T07:18:47.284Z,101322.25
2023-02-19T07:23:49.997Z,101327.09
2023-02-19T07:28:53.321Z,101328.69
2023-02-19T07:33:56.299Z,101317.38
2023-02-19T07:39:01.283Z,101314.16
2023-02-19T07:44:04.298Z,101314.84
2023-02-19T07:49:07.553Z,101314.09
2023-02-19T07:54:10.550Z,101251.94
2023-02-19T07:59:13.277Z,101316.56
2023-02-19T08:04:16.036Z,101318.59
2023-02-19T08:09:18.810Z,101307.16
2023-02-19T08:14:32.814Z,101316.69
2023-02-19T08:19:35.484Z,101307.59
2023-02-19T08:24:43.239Z,101307.16
2023-02-19T08:29:45.887Z,101304.94
2023-02-19T08:34:48.592Z,101298.63
2023-02-19T08:39:51.289Z,101306.13
2023-02-19T08:44:54.057Z,101302.16
2023-02-19T08:49:56.771Z,101307.09
2023-02-19T08:55:02.799Z,101288.72
2023-02-19T09:00:07.210Z,101312.00
2023-02-19T09:05:11.935Z,101316.13
2023-02-19T09:10:15.394Z,101313.75
2023-02-19T09:15:18.545Z,101309.34
2023-02-19T09:20:22.588Z,101313.09
2023-02-19T09:25:29.529Z,101321.56
2023-02-19T09:30:38.555Z,101320.94
2023-02-19T09:35:41.239Z,101314.16
2023-02-19T09:40:54.667Z,101309.56
2023-02-19T09:46:07.370Z,101312.31
2023-02-19T09:51:11.284Z,101330.66
2023-02-19T09:56:14.114Z,101323.03
2023-02-19T10:01:17.420Z,101319.75
2023-02-19T10:06:32.563Z,101333.25
2023-02-19T10:11:35.719Z,101323.88
2023-02-19T10:16:43.023Z,101346.47
2023-02-19T10:21:45.832Z,101327.13
2023-02-19T10:26:49.586Z,101314.94
2023-02-19T10:32:17.478Z,101340.16
2023-02-19T10:37:20.266Z,101342.25
2023-02-19T10:42:23.774Z,101346.19
2023-02-19T10:47:27.945Z,101316.13
2023-02-19T10:52:34.686Z,101355.50
2023-02-19T10:57:38.191Z,101343.22
2023-02-19T11:02:40.894Z,101337.13
2023-02-19T11:07:52.579Z,101346.84
2023-02-19T11:12:57.984Z,101353.75
2023-02-19T11:18:26.855Z,101366.09
2023-02-19T11:23:44.671Z,101370.59
2023-02-19T11:28:57.004Z,101377.88
2023-02-19T11:34:02.055Z,101378.16
2023-02-19T11:39:10.757Z,101379.06
2023-02-19T11:44:36.312Z,101385.69
2023-02-19T11:49:50.419Z,101385.16
2023-02-19T11:54:59.196Z,101383.63
2023-02-19T12:00:04.770Z,101388.06
2023-02-19T12:05:18.033Z,101393.56
2023-02-19T12:10:35.917Z,101392.84
2023-02-19T12:15:47.964Z,101403.31
2023-02-19T12:21:02.849Z,101402.25
2023-02-19T12:26:22.746Z,101329.91
2023-02-19T12:31:55.304Z,101415.56
2023-02-19T12:37:11.191Z,101408.97
2023-02-19T12:42:37.698Z,101417.47
2023-02-19T12:47:41.859Z,101422.44
2023-02-19T12:52:44.645Z,101421.56
2023-02-19T12:57:47.674Z,101425.94
2023-02-19T13:02:51.252Z,101429.69
2023-02-19T13:08:04.735Z,101427.03
2023-02-19T13:13:19.598Z,101437.47
2023-02-19T13:18:30.731Z,101441.00
2023-02-19T13:23:57.796Z,101441.00
2023-02-19T13:29:11.729Z,101446.81
2023-02-19T13:34:38.560Z,101441.66
2023-02-19T13:39:54.744Z,101435.44
2023-02-19T13:44:58.853Z,101440.72
2023-02-19T13:50:19.876Z,101439.84
2023-02-19T13:55:44.700Z,101445.66
2023-02-19T14:00:50.178Z,101451.50
2023-02-19T14:06:17.282Z,101453.25
2023-02-19T14:11:46.652Z,101455.72
2023-02-19T14:16:52.462Z,101453.22
2023-02-19T14:21:55.272Z,101445.59
2023-02-19T14:26:58.141Z,101462.13
2023-02-19T14:32:05.647Z,101472.69
2023-02-19T14:37:19.023Z,101462.03
2023-02-19T14:42:34.486Z,101457.41
2023-02-19T14:47:37.721Z,101469.78
2023-02-19T14:52:50.453Z,101477.41
2023-02-19T14:57:55.995Z,101441.19
2023-02-19T15:03:00.116Z,101478.59
2023-02-19T15:08:09.576Z,101484.94
2023-02-19T15:13:17.849Z,101476.28
2023-02-19T15:18:22.469Z,101473.84
2023-02-19T15:23:25.989Z,101465.81
2023-02-19T15:28:32.901Z,101477.72
2023-02-19T15:33:35.714Z,101474.91
2023-02-19T15:38:38.539Z,101480.06
2023-02-19T15:43:51.114Z,101470.69
2023-02-19T15:48:54.069Z,101480.97
2023-02-19T15:53:59.941Z,101469.97
2023-02-19T15:59:13.991Z,101476.72
2023-02-19T16:04:17.126Z,101483.56
2023-02-19T16:09:22.593Z,101482.66
2023-02-19T16:14:33.712Z,101489.16
2023-02-19T16:19:58.274Z,101496.00
2023-02-19T16:25:05.843Z,101500.88
2023-02-19T16:30:17.728Z,101505.19
2023-02-19T16:35:37.793Z,101506.25
2023-02-19T16:40:43.570Z,101510.88
2023-02-19T16:45:47.057Z,101492.13
2023-02-19T16:50:49.825Z,101504.19
2023-02-19T16:55:52.881Z,101509.50
2023-02-19T17:00:56.582Z,101501.75
2023-02-19T17:05:59.265Z,101507.44
2023-02-19T17:11:04.043Z,101503.22
2023-02-19T17:16:06.995Z,101509.44
2023-02-19T17:21:15.725Z,101512.25
2023-02-19T17:26:21.604Z,101525.91
2023-02-19T17:31:24.575Z,101520.44
2023-02-19T17:36:32.156Z,101517.41
2023-02-19T17:41:34.913Z,101526.94
2023-02-19T17:46:38.214Z,101531.19
2023-02-19T17:51:40.874Z,101525.69
2023-02-19T17:56:46.376Z,101532.59
2023-02-19T18:01:49.272Z,101535.56
2023-02-19T18:06:54.771Z,101527.22
2023-02-19T18:11:57.600Z,101528.97
2023-02-19T18:17:00.497Z,101542.75
2023-02-19T18:22:04.731Z,101537.38
2023-02-19T18:27:09.015Z,101544.63
2023-02-19T18:32:11.667Z,101539.47
2023-02-19T18:37:14.613Z,101534.53
2023-02-19T18:42:17.496Z,101556.75
2023-02-19T18:47:22.039Z,101558.78
2023-02-19T18:52:26.573Z,101553.38
2023-02-19T18:57:29.398Z,101558.03
2023-02-19T19:02:42.898Z,101579.38
2023-02-19T19:07:55.754Z,101557.78
2023-02-19T19:12:58.900Z,101555.69
2023-02-19T19:18:03.083Z,101568.44
2023-02-19T19:23:06.705Z,101581.59
2023-02-19T19:28:09.686Z,101585.09
2023-02-19T19:33:14.212Z,101590.25
2023-02-19T19:38:17.170Z,101591.13
2023-02-19T19:43:19.805Z,101583.25
2023-02-19T19:48:23.309Z,101597.78
2023-02-19T19:53:26.124Z,101570.44
2023-02-19T19:58:29.102Z,101592.38
2023-02-19T20:03:33.659Z,101604.56
2023-02-19T20:08:36.538Z,101599.44
2023-02-19T20:13:39.166Z,101596.19
2023-02-19T20:18:42.217Z,101622.88
2023-02-19T20:23:44.988Z,101596.09
2023-02-19T20:28:47.737Z,101630.81
2023-02-19T20:33:51.514Z,101623.22
2023-02-19T20:38:54.329Z,101605.22
2023-02-19T20:43:56.997Z,101622.09
2023-02-19T20:48:59.705Z,101634.09
2023-02-19T20:54:02.445Z,101628.22
2023-02-19T20:59:05.203Z,101639.44
2023-02-19T21:04:08.201Z,101651.69
2023-02-19T21:09:10.955Z,101639.19
2023-02-19T21:14:13.650Z,101648.97
2023-02-19T21:19:17.242Z,101647.13
2023-02-19T21:24:19.846Z,101650.88
2023-02-19T21:29:23.437Z,101626.66
2023-02-19T21:34:28.050Z,101651.16
2023-02-19T21:39:32.630Z,101648.13
2023-02-19T21:44:35.431Z,101655.94
2023-02-19T21:49:38.162Z,101656.50
2023-02-19T21:54:40.863Z,101652.56
2023-02-19T21:59:43.558Z,101661.34
2023-02-19T22:04:47.254Z,101667.75
2023-02-19T22:09:51.058Z,101653.03
2023-02-19T22:14:53.743Z,101670.19
2023-02-19T22:19:56.468Z,101673.84
2023-02-19T22:24:59.158Z,101685.47
2023-02-19T22:30:02.127Z,101691.78
2023-02-19T22:35:06.802Z,101698.19
2023-02-19T22:40:09.849Z,101692.88
2023-02-19T22:45:12.719Z,101693.84
2023-02-19T22:50:23.088Z,101693.16
2023-02-19T22:55:25.743Z,101694.81
2023-02-19T23:00:28.495Z,101704.94
2023-02-19T23:05:32.671Z,101704.16
2023-02-19T23:10:35.295Z,101704.16
2023-02-19T23:15:38.035Z,101704.00
2023-02-19T23:20:40.761Z,101700.72
2023-02-19T23:25:43.537Z,101697.88
2023-02-19T23:30:46.274Z,101704.72
2023-02-19T23:35:48.985Z,101701.66
2023-02-19T23:40:51.586Z,101703.38
2023-02-19T23:45:54.325Z,101711.16
2023-02-19T23:50:57.176Z,101679.25
2023-02-19T23:55:59.889Z,101710.53
